• Join FlightAware (Why Join?)
  • Login
  • US Flag 
05:38AM EDT


 

Airport Tracker/Info


-or-


 

Live Flight TrackerFlight Track Log ✈ SWA143 ✈ 06-Jun-2013 ✈ KPHX - KONT

Flight Track Log - Related Links

Times and Time Zones

All times are in EDT time to prevent confusion due to time zone crossing. See the SWA143 flight status page for this flight to view local times or setup timezone preferences in your user account.

Time Position Orientation Groundspeed Altitude Reporting Facility
EDT Latitude Longitude Course Direction KTS MPH feet Rate Location/Type
05:45PM 33.4333 -112.0333 253° West 188 216 2,000  Level Phoenix TRACON
05:46PM 33.4167 -112.1000 253° West 218 251 3,700 2,100 Climbing Phoenix TRACON
05:47PM 33.4000 -112.1667 253° West 226 260 6,300 2,040 Climbing Phoenix TRACON
05:47PM 33.3939 -112.1825 245° Southwest 227 261 6,600 1,620 Climbing Albuquerque Center
05:48PM 33.3942 -112.2892 270° West 291 335 8,500 1,860 Climbing Albuquerque Center
05:49PM 33.4044 -112.3878 277° West 300 345 10,500 1,740 Climbing Albuquerque Center
05:50PM 33.4178 -112.5033 278° West 348 400 12,200 1,860 Climbing Albuquerque Center
05:51PM 33.4317 -112.6261 278° West 359 413 14,400 2,040 Climbing Albuquerque Center
05:52PM 33.4450 -112.7483 277° West 367 422 16,400 2,220 Climbing Albuquerque Center
05:53PM 33.4619 -112.8744 279° West 379 436 19,000 2,400 Climbing Albuquerque Center
05:54PM 33.4869 -112.9986 284° West 384 442 21,400 1,920 Climbing Albuquerque Center
05:55PM 33.5108 -113.1219 283° West 383 441 23,000 1,800 Climbing Albuquerque Center
05:56PM 33.5403 -113.2769 283° West 389 448 25,100 1,560 Climbing Albuquerque Center
05:57PM 33.5647 -113.4089 283° West 397 457 26,300 1,320 Climbing Albuquerque Center
05:58PM 33.5906 -113.5436 283° West 406 467 27,900 780 Climbing Albuquerque Center
05:59PM 33.6164 -113.6819 283° West 414 476 28,000  Climbing Albuquerque Center
06:00PM 33.6372 -113.8167 281° West 414 476 28,000  Level Albuquerque Center
06:01PM 33.6492 -113.9536 276° West 414 476 28,000  Level Albuquerque Center
06:03PM 33.6625 -114.0889 277° West 411 473 28,000  Level Albuquerque Center
06:04PM 33.6778 -114.2483 277° West 409 471 28,000  Level Albuquerque Center
06:05PM 33.6914 -114.3839 277° West 409 471 28,000  Level Albuquerque Center
06:05PM 33.6961 -114.4264 278° West 409 471 28,000  Level Los Angeles Center
06:06PM 33.7100 -114.5631 277° West 413 475 28,000  Level Los Angeles Center
06:07PM 33.7236 -114.6994 277° West 413 475 28,000  Level Los Angeles Center
06:08PM 33.7339 -114.8358 275° West 411 473 28,000  Level Los Angeles Center
06:09PM 33.7503 -115.0008 277° West 415 478 28,000  Level Los Angeles Center
06:10PM 33.7614 -115.1389 276° West 417 480 28,000  Level Los Angeles Center
06:11PM 33.7747 -115.2761 277° West 416 479 28,000  Level Los Angeles Center
06:12PM 33.7864 -115.4142 276° West 417 480 28,000  Level Los Angeles Center
06:13PM 33.7986 -115.5528 276° West 418 481 28,000  Level Los Angeles Center
06:14PM 33.8122 -115.7186 276° West 418 481 28,000  Level Los Angeles Center
06:15PM 33.8250 -115.8578 276° West 419 482 28,000  Level Los Angeles Center
06:16PM 33.8361 -115.9975 276° West 423 487 28,000  Level Los Angeles Center
06:17PM 33.8469 -116.1378 275° West 424 488 28,000 -600 Level Los Angeles Center
06:18PM 33.8575 -116.2725 275° West 407 468 26,800 -2,400 Descending Los Angeles Center
06:19PM 33.8686 -116.4067 276° West 404 465 23,100 -3,420 Descending Los Angeles Center
06:20PM 33.8756 -116.5436 274° West 410 472 19,800 -3,180 Descending Los Angeles Center
06:21PM 33.8836 -116.7047 273° West 405 466 16,600 -2,700 Descending Los Angeles Center
06:22PM 33.8892 -116.8336 273° West 394 453 14,300 -1,920 Descending Los Angeles Center
06:24PM 33.8950 -116.9522 273° West 366 421 12,700 -1,620 Descending Los Angeles Center
06:25PM 33.9119 -117.0642 280° West 350 403 11,000 -2,100 Descending Los Angeles Center
06:26PM 33.9650 -117.1722 301° West 317 365 8,400 -2,160 Descending Los Angeles Center
06:27PM 34.0000 -117.2500 299° West 300 345 6,800 -1,740 Descending Southern California TRACON
06:28PM 34.0500 -117.3500 301° West 279 321 4,900 -1,500 Descending Southern California TRACON
06:29PM 34.0500 -117.4167 270° West 223 257 3,800 -1,260 Descending Southern California TRACON
06:30PM 34.0500 -117.5000 270° West 185 213 2,400 -1,020 Descending Southern California TRACON
06:31PM 34.0500 -117.5333 270° West 135 155 1,800 -660 Descending Southern California TRACON
06:34PM 34.0500 -117.6000 287° West  Level FlightAware Approximate